sensor_id;sensor_type;location;lat;lon;timestamp;pressure;altitude;pressure_sealevel;temperature;humidity
71638;BME280;59485;43.542;-5.676;2022-12-11T07:18:27;100442.03;;;7.45;100.00
71638;BME280;59485;43.542;-5.676;2022-12-11T07:20:53;100448.69;;;7.51;100.00
71638;BME280;59485;43.542;-5.676;2022-12-11T07:23:18;100447.81;;;7.50;100.00
71638;BME280;59485;43.542;-5.676;2022-12-11T07:25:44;100439.16;;;7.47;100.00
71638;BME280;59485;43.542;-5.676;2022-12-11T07:28:10;100434.53;;;7.47;100.00
71638;BME280;59485;43.542;-5.676;2022-12-11T07:30:37;100437.25;;;7.47;100.00
71638;BME280;59485;43.542;-5.676;2022-12-11T07:33:03;100441.53;;;7.50;100.00
71638;BME280;59485;43.542;-5.676;2022-12-11T07:35:30;100445.94;;;7.51;100.00
71638;BME280;59485;43.542;-5.676;2022-12-11T07:37:58;100431.81;;;7.47;100.00
71638;BME280;59485;43.542;-5.676;2022-12-11T07:40:23;100427.72;;;7.51;100.00
71638;BME280;59485;43.542;-5.676;2022-12-11T07:42:49;100434.66;;;7.54;100.00
71638;BME280;59485;43.542;-5.676;2022-12-11T07:45:14;100425.63;;;7.53;100.00
71638;BME280;59485;43.542;-5.676;2022-12-11T07:47:40;100423.59;;;7.56;100.00
71638;BME280;59485;43.542;-5.676;2022-12-11T07:50:06;100429.72;;;7.58;100.00
71638;BME280;59485;43.542;-5.676;2022-12-11T07:52:32;100443.19;;;7.59;100.00
71638;BME280;59485;43.542;-5.676;2022-12-11T07:54:58;100431.94;;;7.54;100.00
71638;BME280;59485;43.542;-5.676;2022-12-11T07:57:23;100437.22;;;7.56;100.00
71638;BME280;59485;43.542;-5.676;2022-12-11T07:59:49;100441.34;;;7.51;100.00
71638;BME280;59485;43.542;-5.676;2022-12-11T08:02:14;100449.03;;;7.48;100.00
71638;BME280;59485;43.542;-5.676;2022-12-11T08:04:40;100458.34;;;7.53;100.00
71638;BME280;59485;43.542;-5.676;2022-12-11T08:07:05;100474.91;;;7.52;100.00
71638;BME280;59485;43.542;-5.676;2022-12-11T08:09:31;100474.41;;;7.48;100.00
71638;BME280;59485;43.542;-5.676;2022-12-11T08:14:32;100472.69;;;7.56;100.00
71638;BME280;59485;43.542;-5.676;2022-12-11T08:24:43;100473.81;;;7.69;100.00
71638;BME280;59485;43.542;-5.676;2022-12-11T08:27:08;100484.16;;;7.74;100.00
71638;BME280;59485;43.542;-5.676;2022-12-11T08:29:34;100481.63;;;7.72;100.00
71638;BME280;59485;43.542;-5.676;2022-12-11T08:31:59;100473.75;;;7.77;100.00
71638;BME280;59485;43.542;-5.676;2022-12-11T08:34:25;100461.63;;;7.80;100.00
71638;BME280;59485;43.542;-5.676;2022-12-11T08:36:51;100458.53;;;7.83;100.00
71638;BME280;59485;43.542;-5.676;2022-12-11T08:39:16;100458.66;;;7.89;100.00
71638;BME280;59485;43.542;-5.676;2022-12-11T08:41:42;100462.16;;;7.98;100.00
71638;BME280;59485;43.542;-5.676;2022-12-11T08:44:10;100455.69;;;7.99;100.00
71638;BME280;59485;43.542;-5.676;2022-12-11T08:46:36;100450.56;;;8.04;100.00
71638;BME280;59485;43.542;-5.676;2022-12-11T08:49:02;100447.25;;;8.09;100.00
71638;BME280;59485;43.542;-5.676;2022-12-11T08:51:28;100457.66;;;8.13;100.00
71638;BME280;59485;43.542;-5.676;2022-12-11T08:53:56;100469.59;;;8.12;100.00
71638;BME280;59485;43.542;-5.676;2022-12-11T08:56:22;100468.19;;;8.16;100.00
71638;BME280;59485;43.542;-5.676;2022-12-11T08:58:48;100460.50;;;8.20;100.00
71638;BME280;59485;43.542;-5.676;2022-12-11T09:01:22;100464.91;;;8.21;100.00
71638;BME280;59485;43.542;-5.676;2022-12-11T09:03:49;100453.94;;;8.29;100.00
71638;BME280;59485;43.542;-5.676;2022-12-11T09:06:17;100450.16;;;8.30;100.00
71638;BME280;59485;43.542;-5.676;2022-12-11T09:08:44;100456.78;;;8.36;100.00
71638;BME280;59485;43.542;-5.676;2022-12-11T09:11:13;100457.66;;;8.36;100.00
71638;BME280;59485;43.542;-5.676;2022-12-11T09:13:39;100453.13;;;8.43;100.00
71638;BME280;59485;43.542;-5.676;2022-12-11T09:16:16;100446.66;;;8.44;100.00
71638;BME280;59485;43.542;-5.676;2022-12-11T09:18:44;100455.34;;;8.48;100.00
71638;BME280;59485;43.542;-5.676;2022-12-11T09:21:13;100456.81;;;8.50;100.00
71638;BME280;59485;43.542;-5.676;2022-12-11T09:23:40;100467.88;;;8.57;100.00
71638;BME280;59485;43.542;-5.676;2022-12-11T09:26:08;100475.22;;;8.56;100.00
71638;BME280;59485;43.542;-5.676;2022-12-11T09:28:35;100470.97;;;8.54;100.00
71638;BME280;59485;43.542;-5.676;2022-12-11T09:31:09;100480.50;;;8.58;100.00
71638;BME280;59485;43.542;-5.676;2022-12-11T09:33:36;100478.31;;;8.53;100.00
71638;BME280;59485;43.542;-5.676;2022-12-11T09:36:02;100477.56;;;8.59;100.00
71638;BME280;59485;43.542;-5.676;2022-12-11T09:38:28;100486.75;;;8.67;100.00
71638;BME280;59485;43.542;-5.676;2022-12-11T09:40:55;100482.41;;;8.72;100.00
71638;BME280;59485;43.542;-5.676;2022-12-11T09:43:30;100478.56;;;8.81;100.00
71638;BME280;59485;43.542;-5.676;2022-12-11T09:46:00;100486.41;;;8.84;100.00
71638;BME280;59485;43.542;-5.676;2022-12-11T09:48:28;100477.53;;;8.82;100.00
71638;BME280;59485;43.542;-5.676;2022-12-11T09:50:55;100489.59;;;8.88;100.00
71638;BME280;59485;43.542;-5.676;2022-12-11T09:53:28;100490.53;;;8.95;100.00
71638;BME280;59485;43.542;-5.676;2022-12-11T09:56:21;100484.25;;;8.94;100.00
71638;BME280;59485;43.542;-5.676;2022-12-11T09:59:15;100481.78;;;8.99;100.00
71638;BME280;59485;43.542;-5.676;2022-12-11T10:01:59;100498.94;;;9.08;100.00
71638;BME280;59485;43.542;-5.676;2022-12-11T10:04:50;100496.97;;;9.17;100.00
71638;BME280;59485;43.542;-5.676;2022-12-11T10:17:48;100516.31;;;9.45;100.00
71638;BME280;59485;43.542;-5.676;2022-12-11T10:20:17;100514.50;;;9.52;100.00
71638;BME280;59485;43.542;-5.676;2022-12-11T10:22:43;100509.78;;;9.60;100.00
71638;BME280;59485;43.542;-5.676;2022-12-11T10:25:21;100508.44;;;9.71;100.00
71638;BME280;59485;43.542;-5.676;2022-12-11T10:27:49;100504.59;;;9.65;100.00
71638;BME280;59485;43.542;-5.676;2022-12-11T10:35:47;100503.66;;;9.94;100.00
71638;BME280;59485;43.542;-5.676;2022-12-11T10:40:45;100492.22;;;10.05;100.00
71638;BME280;59485;43.542;-5.676;2022-12-11T10:43:11;100497.31;;;10.08;100.00
71638;BME280;59485;43.542;-5.676;2022-12-11T10:45:38;100492.94;;;10.14;100.00
71638;BME280;59485;43.542;-5.676;2022-12-11T10:48:10;100487.56;;;10.21;100.00
71638;BME280;59485;43.542;-5.676;2022-12-11T10:50:37;100482.06;;;10.21;100.00
71638;BME280;59485;43.542;-5.676;2022-12-11T10:53:04;100478.56;;;10.27;100.00
71638;BME280;59485;43.542;-5.676;2022-12-11T10:55:53;100478.06;;;10.38;100.00
71638;BME280;59485;43.542;-5.676;2022-12-11T10:58:21;100476.03;;;10.46;100.00
71638;BME280;59485;43.542;-5.676;2022-12-11T11:01:14;100477.59;;;10.56;100.00
71638;BME280;59485;43.542;-5.676;2022-12-11T11:06:19;100468.22;;;10.71;100.00
71638;BME280;59485;43.542;-5.676;2022-12-11T11:08:51;100468.06;;;10.79;100.00
71638;BME280;59485;43.542;-5.676;2022-12-11T11:11:26;100462.03;;;10.90;100.00
71638;BME280;59485;43.542;-5.676;2022-12-11T11:16:36;100468.44;;;11.04;100.00
71638;BME280;59485;43.542;-5.676;2022-12-11T11:19:03;100469.75;;;11.08;100.00
71638;BME280;59485;43.542;-5.676;2022-12-11T11:21:29;100468.09;;;11.14;100.00
71638;BME280;59485;43.542;-5.676;2022-12-11T11:23:56;100465.81;;;11.17;100.00
71638;BME280;59485;43.542;-5.676;2022-12-11T11:26:22;100463.94;;;11.24;100.00
71638;BME280;59485;43.542;-5.676;2022-12-11T11:28:51;100462.91;;;11.32;100.00
71638;BME280;59485;43.542;-5.676;2022-12-11T11:31:20;100462.06;;;11.32;100.00
71638;BME280;59485;43.542;-5.676;2022-12-11T11:33:56;100459.53;;;11.30;100.00
71638;BME280;59485;43.542;-5.676;2022-12-11T11:36:25;100461.00;;;11.26;100.00
71638;BME280;59485;43.542;-5.676;2022-12-11T11:39:19;100457.41;;;11.25;100.00
71638;BME280;59485;43.542;-5.676;2022-12-11T11:44:47;100455.34;;;11.34;100.00
71638;BME280;59485;43.542;-5.676;2022-12-11T11:47:26;100454.22;;;11.28;100.00
71638;BME280;59485;43.542;-5.676;2022-12-11T11:50:00;100463.13;;;11.37;100.00
71638;BME280;59485;43.542;-5.676;2022-12-11T11:55:14;100462.56;;;11.48;100.00
71638;BME280;59485;43.542;-5.676;2022-12-11T12:00:21;100470.03;;;11.61;100.00
71638;BME280;59485;43.542;-5.676;2022-12-11T12:02:48;100466.06;;;11.70;100.00
71638;BME280;59485;43.542;-5.676;2022-12-11T12:05:22;100458.22;;;11.74;100.00
71638;BME280;59485;43.542;-5.676;2022-12-11T12:08:00;100458.91;;;11.76;100.00
71638;BME280;59485;43.542;-5.676;2022-12-11T12:16:16;100449.88;;;11.88;100.00
71638;BME280;59485;43.542;-5.676;2022-12-11T12:18:54;100441.25;;;11.98;100.00
71638;BME280;59485;43.542;-5.676;2022-12-11T12:21:31;100438.31;;;12.06;100.00
71638;BME280;59485;43.542;-5.676;2022-12-11T12:26:40;100435.16;;;12.16;100.00
71638;BME280;59485;43.542;-5.676;2022-12-11T12:29:58;100433.88;;;12.05;100.00
71638;BME280;59485;43.542;-5.676;2022-12-11T12:32:38;100447.81;;;12.10;100.00
71638;BME280;59485;43.542;-5.676;2022-12-11T12:35:31;100451.00;;;12.14;100.00
71638;BME280;59485;43.542;-5.676;2022-12-11T12:49:13;100456.94;;;12.57;100.00
71638;BME280;59485;43.542;-5.676;2022-12-11T12:51:41;100453.34;;;12.56;100.00
71638;BME280;59485;43.542;-5.676;2022-12-11T12:54:13;100456.75;;;12.65;100.00
71638;BME280;59485;43.542;-5.676;2022-12-11T12:56:40;100472.59;;;12.76;100.00
71638;BME280;59485;43.542;-5.676;2022-12-11T12:59:37;100472.81;;;12.81;100.00
71638;BME280;59485;43.542;-5.676;2022-12-11T13:02:03;100477.28;;;12.69;100.00
71638;BME280;59485;43.542;-5.676;2022-12-11T13:04:40;100478.97;;;12.70;100.00
71638;BME280;59485;43.542;-5.676;2022-12-11T13:07:12;100472.41;;;12.58;100.00
71638;BME280;59485;43.542;-5.676;2022-12-11T13:09:41;100465.00;;;12.52;100.00
71638;BME280;59485;43.542;-5.676;2022-12-11T13:12:14;100466.69;;;12.59;100.00
71638;BME280;59485;43.542;-5.676;2022-12-11T13:14:40;100461.59;;;12.63;100.00
71638;BME280;59485;43.542;-5.676;2022-12-11T13:19:47;100473.66;;;12.62;100.00
71638;BME280;59485;43.542;-5.676;2022-12-11T13:24:46;100476.00;;;12.65;100.00
71638;BME280;59485;43.542;-5.676;2022-12-11T13:27:40;100476.41;;;12.75;100.00
71638;BME280;59485;43.542;-5.676;2022-12-11T13:32:59;100484.88;;;12.87;100.00
71638;BME280;59485;43.542;-5.676;2022-12-11T13:35:27;100492.50;;;12.85;100.00
71638;BME280;59485;43.542;-5.676;2022-12-11T13:37:55;100495.44;;;12.83;100.00
71638;BME280;59485;43.542;-5.676;2022-12-11T13:40:27;100486.13;;;12.71;100.00
71638;BME280;59485;43.542;-5.676;2022-12-11T13:42:55;100497.56;;;12.81;100.00
71638;BME280;59485;43.542;-5.676;2022-12-11T13:47:55;100488.25;;;12.75;100.00
71638;BME280;59485;43.542;-5.676;2022-12-11T13:50:28;100490.81;;;12.84;100.00
71638;BME280;59485;43.542;-5.676;2022-12-11T13:52:57;100488.88;;;12.91;100.00
71638;BME280;59485;43.542;-5.676;2022-12-11T13:55:29;100494.81;;;12.94;100.00
71638;BME280;59485;43.542;-5.676;2022-12-11T13:57:55;100487.63;;;12.93;100.00
71638;BME280;59485;43.542;-5.676;2022-12-11T14:00:24;100492.91;;;13.01;100.00
71638;BME280;59485;43.542;-5.676;2022-12-11T14:02:51;100494.78;;;13.07;100.00
71638;BME280;59485;43.542;-5.676;2022-12-11T14:05:19;100486.75;;;13.12;100.00
71638;BME280;59485;43.542;-5.676;2022-12-11T14:07:48;100483.16;;;13.12;100.00
71638;BME280;59485;43.542;-5.676;2022-12-11T14:12:49;100495.66;;;13.21;100.00
71638;BME280;59485;43.542;-5.676;2022-12-11T14:15:16;100480.63;;;13.24;100.00
71638;BME280;59485;43.542;-5.676;2022-12-11T14:17:42;100476.59;;;13.20;100.00
71638;BME280;59485;43.542;-5.676;2022-12-11T14:20:23;100480.00;;;13.22;100.00
71638;BME280;59485;43.542;-5.676;2022-12-11T14:22:50;100473.44;;;13.16;100.00
71638;BME280;59485;43.542;-5.676;2022-12-11T14:25:26;100467.91;;;13.16;100.00
71638;BME280;59485;43.542;-5.676;2022-12-11T14:27:54;100475.97;;;13.31;100.00
71638;BME280;59485;43.542;-5.676;2022-12-11T14:30:32;100470.22;;;13.26;100.00
71638;BME280;59485;43.542;-5.676;2022-12-11T14:35:34;100472.16;;;13.19;100.00
71638;BME280;59485;43.542;-5.676;2022-12-11T14:38:07;100467.28;;;13.01;100.00
71638;BME280;59485;43.542;-5.676;2022-12-11T14:40:38;100465.19;;;12.96;100.00
71638;BME280;59485;43.542;-5.676;2022-12-11T14:43:11;100474.06;;;12.92;100.00
71638;BME280;59485;43.542;-5.676;2022-12-11T14:45:41;100480.84;;;13.02;100.00
71638;BME280;59485;43.542;-5.676;2022-12-11T14:48:15;100483.59;;;12.89;100.00
71638;BME280;59485;43.542;-5.676;2022-12-11T14:50:47;100486.34;;;12.96;100.00
71638;BME280;59485;43.542;-5.676;2022-12-11T14:53:25;100493.94;;;13.07;100.00
71638;BME280;59485;43.542;-5.676;2022-12-11T14:55:52;100499.03;;;13.03;100.00
71638;BME280;59485;43.542;-5.676;2022-12-11T14:58:22;100504.56;;;13.23;100.00
71638;BME280;59485;43.542;-5.676;2022-12-11T15:03:23;100504.75;;;13.08;100.00
71638;BME280;59485;43.542;-5.676;2022-12-11T15:05:52;100508.13;;;13.10;100.00
71638;BME280;59485;43.542;-5.676;2022-12-11T15:08:19;100509.81;;;13.11;100.00
71638;BME280;59485;43.542;-5.676;2022-12-11T15:11:08;100517.44;;;13.09;100.00
71638;BME280;59485;43.542;-5.676;2022-12-11T15:13:38;100510.06;;;13.03;100.00
71638;BME280;59485;43.542;-5.676;2022-12-11T15:16:13;100510.47;;;13.00;100.00
71638;BME280;59485;43.542;-5.676;2022-12-11T15:18:40;100525.06;;;13.01;100.00
71638;BME280;59485;43.542;-5.676;2022-12-11T15:21:08;100532.91;;;12.84;100.00
71638;BME280;59485;43.542;-5.676;2022-12-11T15:23:59;100538.19;;;12.92;100.00
71638;BME280;59485;43.542;-5.676;2022-12-11T15:29:05;100547.72;;;12.83;100.00
71638;BME280;59485;43.542;-5.676;2022-12-11T15:31:33;100550.28;;;12.78;100.00
71638;BME280;59485;43.542;-5.676;2022-12-11T15:33:59;100555.97;;;12.76;100.00
71638;BME280;59485;43.542;-5.676;2022-12-11T15:36:30;100558.94;;;12.75;100.00
71638;BME280;59485;43.542;-5.676;2022-12-11T15:38:56;100556.19;;;12.75;100.00
71638;BME280;59485;43.542;-5.676;2022-12-11T15:41:23;100562.53;;;12.69;100.00
71638;BME280;59485;43.542;-5.676;2022-12-11T15:43:53;100568.03;;;12.69;100.00
71638;BME280;59485;43.542;-5.676;2022-12-11T15:46:20;100565.44;;;12.54;100.00
71638;BME280;59485;43.542;-5.676;2022-12-11T15:48:49;100571.16;;;12.53;100.00
71638;BME280;59485;43.542;-5.676;2022-12-11T15:51:15;100570.09;;;12.54;100.00
71638;BME280;59485;43.542;-5.676;2022-12-11T15:53:41;100573.47;;;12.43;100.00
71638;BME280;59485;43.542;-5.676;2022-12-11T15:56:15;100568.84;;;12.50;100.00
71638;BME280;59485;43.542;-5.676;2022-12-11T15:58:43;100563.53;;;12.48;100.00
71638;BME280;59485;43.542;-5.676;2022-12-11T16:01:09;100565.44;;;12.48;100.00
71638;BME280;59485;43.542;-5.676;2022-12-11T16:03:35;100570.94;;;12.48;100.00
71638;BME280;59485;43.542;-5.676;2022-12-11T16:06:00;100582.78;;;12.42;100.00
71638;BME280;59485;43.542;-5.676;2022-12-11T16:08:26;100574.66;;;12.27;100.00
71638;BME280;59485;43.542;-5.676;2022-12-11T16:10:53;100584.19;;;12.24;100.00
71638;BME280;59485;43.542;-5.676;2022-12-11T16:13:19;100579.31;;;12.20;100.00
71638;BME280;59485;43.542;-5.676;2022-12-11T16:15:46;100586.88;;;12.11;100.00
71638;BME280;59485;43.542;-5.676;2022-12-11T16:18:18;100591.72;;;12.09;100.00
71638;BME280;59485;43.542;-5.676;2022-12-11T16:20:45;100576.72;;;12.05;100.00
71638;BME280;59485;43.542;-5.676;2022-12-11T16:23:12;100577.13;;;12.02;100.00
71638;BME280;59485;43.542;-5.676;2022-12-11T16:25:39;100568.22;;;12.00;100.00
71638;BME280;59485;43.542;-5.676;2022-12-11T16:28:07;100566.13;;;12.02;100.00
71638;BME280;59485;43.542;-5.676;2022-12-11T16:30:34;100569.53;;;12.04;100.00
71638;BME280;59485;43.542;-5.676;2022-12-11T16:33:01;100583.66;;;12.01;100.00
71638;BME280;59485;43.542;-5.676;2022-12-11T16:35:27;100594.44;;;11.96;100.00
71638;BME280;59485;43.542;-5.676;2022-12-11T16:37:54;100597.56;;;11.93;100.00
71638;BME280;59485;43.542;-5.676;2022-12-11T16:40:20;100586.16;;;11.89;100.00
71638;BME280;59485;43.542;-5.676;2022-12-11T16:42:46;100575.59;;;11.93;100.00
71638;BME280;59485;43.542;-5.676;2022-12-11T16:45:16;100579.22;;;12.00;100.00
71638;BME280;59485;43.542;-5.676;2022-12-11T16:47:42;100592.34;;;11.98;100.00
71638;BME280;59485;43.542;-5.676;2022-12-11T16:50:10;100588.75;;;11.97;100.00
71638;BME280;59485;43.542;-5.676;2022-12-11T16:52:36;100595.47;;;11.95;100.00
71638;BME280;59485;43.542;-5.676;2022-12-11T16:55:02;100593.97;;;11.92;100.00
71638;BME280;59485;43.542;-5.676;2022-12-11T16:57:28;100592.72;;;11.95;100.00
71638;BME280;59485;43.542;-5.676;2022-12-11T16:59:53;100594.41;;;11.89;100.00
71638;BME280;59485;43.542;-5.676;2022-12-11T17:02:19;100607.28;;;11.89;100.00
71638;BME280;59485;43.542;-5.676;2022-12-11T17:04:45;100610.03;;;11.89;100.00
71638;BME280;59485;43.542;-5.676;2022-12-11T17:07:11;100613.38;;;11.84;100.00
71638;BME280;59485;43.542;-5.676;2022-12-11T17:09:36;100609.94;;;11.76;100.00
71638;BME280;59485;43.542;-5.676;2022-12-11T17:12:02;100617.06;;;11.70;100.00
71638;BME280;59485;43.542;-5.676;2022-12-11T17:14:28;100614.50;;;11.62;100.00
71638;BME280;59485;43.542;-5.676;2022-12-11T17:16:54;100629.66;;;11.58;100.00
71638;BME280;59485;43.542;-5.676;2022-12-11T17:19:20;100623.69;;;11.54;100.00
71638;BME280;59485;43.542;-5.676;2022-12-11T17:21:45;100628.75;;;11.51;100.00
71638;BME280;59485;43.542;-5.676;2022-12-11T17:24:13;100638.84;;;11.44;100.00
71638;BME280;59485;43.542;-5.676;2022-12-11T17:26:39;100655.31;;;11.44;100.00
71638;BME280;59485;43.542;-5.676;2022-12-11T17:29:05;100641.75;;;11.36;100.00
71638;BME280;59485;43.542;-5.676;2022-12-11T17:31:31;100656.50;;;11.35;100.00
71638;BME280;59485;43.542;-5.676;2022-12-11T17:33:58;100648.47;;;11.33;100.00
71638;BME280;59485;43.542;-5.676;2022-12-11T17:36:25;100658.78;;;11.31;100.00
71638;BME280;59485;43.542;-5.676;2022-12-11T17:38:52;100655.28;;;11.16;100.00
71638;BME280;59485;43.542;-5.676;2022-12-11T17:41:18;100660.06;;;11.07;100.00
71638;BME280;59485;43.542;-5.676;2022-12-11T17:43:46;100646.91;;;11.03;100.00
71638;BME280;59485;43.542;-5.676;2022-12-11T17:46:12;100650.13;;;10.85;100.00
71638;BME280;59485;43.542;-5.676;2022-12-11T17:48:38;100659.25;;;10.92;100.00
71638;BME280;59485;43.542;-5.676;2022-12-11T17:51:06;100656.66;;;10.84;100.00
71638;BME280;59485;43.542;-5.676;2022-12-11T17:53:32;100664.63;;;10.79;100.00
71638;BME280;59485;43.542;-5.676;2022-12-11T17:56:00;100646.28;;;10.79;100.00
71638;BME280;59485;43.542;-5.676;2022-12-11T17:58:26;100650.97;;;10.85;100.00
71638;BME280;59485;43.542;-5.676;2022-12-11T18:00:54;100659.00;;;10.87;100.00
71638;BME280;59485;43.542;-5.676;2022-12-11T18:03:22;100647.19;;;10.86;100.00
71638;BME280;59485;43.542;-5.676;2022-12-11T18:05:50;100653.34;;;10.88;100.00
71638;BME280;59485;43.542;-5.676;2022-12-11T18:08:19;100652.28;;;10.89;100.00
71638;BME280;59485;43.542;-5.676;2022-12-11T18:10:45;100650.59;;;10.88;100.00
71638;BME280;59485;43.542;-5.676;2022-12-11T18:13:11;100650.41;;;10.90;100.00
71638;BME280;59485;43.542;-5.676;2022-12-11T18:15:37;100647.19;;;10.86;100.00
71638;BME280;59485;43.542;-5.676;2022-12-11T18:18:04;100650.31;;;10.83;100.00
71638;BME280;59485;43.542;-5.676;2022-12-11T18:20:32;100647.19;;;10.86;100.00
71638;BME280;59485;43.542;-5.676;2022-12-11T18:22:59;100649.09;;;10.86;100.00
71638;BME280;59485;43.542;-5.676;2022-12-11T18:25:24;100643.72;;;10.78;100.00
71638;BME280;59485;43.542;-5.676;2022-12-11T18:27:50;100652.19;;;10.83;100.00
71638;BME280;59485;43.542;-5.676;2022-12-11T18:30:16;100639.09;;;10.78;100.00
71638;BME280;59485;43.542;-5.676;2022-12-11T18:32:42;100648.22;;;10.85;100.00
71638;BME280;59485;43.542;-5.676;2022-12-11T18:35:09;100656.00;;;10.82;100.00
71638;BME280;59485;43.542;-5.676;2022-12-11T18:37:35;100661.69;;;10.80;100.00
71638;BME280;59485;43.542;-5.676;2022-12-11T18:40:05;100659.13;;;10.79;100.00
71638;BME280;59485;43.542;-5.676;2022-12-11T18:42:31;100666.97;;;10.82;100.00
71638;BME280;59485;43.542;-5.676;2022-12-11T18:44:57;100677.09;;;10.81;100.00
71638;BME280;59485;43.542;-5.676;2022-12-11T18:47:23;100679.84;;;10.81;100.00
71638;BME280;59485;43.542;-5.676;2022-12-11T18:49:48;100677.94;;;10.82;100.00
71638;BME280;59485;43.542;-5.676;2022-12-11T18:52:14;100683.22;;;10.83;100.00
71638;BME280;59485;43.542;-5.676;2022-12-11T18:54:39;100680.88;;;10.80;100.00
71638;BME280;59485;43.542;-5.676;2022-12-11T18:57:06;100676.25;;;10.81;100.00
71638;BME280;59485;43.542;-5.676;2022-12-11T18:59:32;100678.34;;;10.79;100.00
71638;BME280;59485;43.542;-5.676;2022-12-11T19:01:57;100679.56;;;10.76;100.00
71638;BME280;59485;43.542;-5.676;2022-12-11T19:04:23;100686.50;;;10.72;100.00
71638;BME280;59485;43.542;-5.676;2022-12-11T19:06:49;100694.72;;;10.72;100.00
71638;BME280;59485;43.542;-5.676;2022-12-11T19:09:14;100699.97;;;10.74;100.00
71638;BME280;59485;43.542;-5.676;2022-12-11T19:11:40;100711.16;;;10.72;100.00
71638;BME280;59485;43.542;-5.676;2022-12-11T19:14:08;100702.66;;;10.67;100.00
71638;BME280;59485;43.542;-5.676;2022-12-11T19:16:36;100702.09;;;10.72;100.00
71638;BME280;59485;43.542;-5.676;2022-12-11T19:19:05;100707.75;;;10.70;100.00
71638;BME280;59485;43.542;-5.676;2022-12-11T19:21:31;100711.06;;;10.66;100.00
71638;BME280;59485;43.542;-5.676;2022-12-11T19:23:59;100702.00;;;10.65;100.00
71638;BME280;59485;43.542;-5.676;2022-12-11T19:26:25;100702.59;;;10.61;100.00
71638;BME280;59485;43.542;-5.676;2022-12-11T19:28:51;100702.31;;;10.56;100.00
71638;BME280;59485;43.542;-5.676;2022-12-11T19:31:20;100700.31;;;10.49;100.00
71638;BME280;59485;43.542;-5.676;2022-12-11T19:33:48;100724.44;;;10.54;100.00
71638;BME280;59485;43.542;-5.676;2022-12-11T19:36:16;100714.69;;;10.51;100.00
71638;BME280;59485;43.542;-5.676;2022-12-11T19:38:44;100699.88;;;10.46;100.00
71638;BME280;59485;43.542;-5.676;2022-12-11T19:41:18;100693.06;;;10.42;100.00
71638;BME280;59485;43.542;-5.676;2022-12-11T19:43:44;100709.31;;;10.43;100.00
71638;BME280;59485;43.542;-5.676;2022-12-11T19:46:10;100718.31;;;10.37;100.00
71638;BME280;59485;43.542;-5.676;2022-12-11T19:48:37;100721.06;;;10.37;100.00
71638;BME280;59485;43.542;-5.676;2022-12-11T19:51:10;100716.97;;;10.33;100.00
71638;BME280;59485;43.542;-5.676;2022-12-11T19:53:36;100722.19;;;10.28;100.00
71638;BME280;59485;43.542;-5.676;2022-12-11T19:56:03;100726.34;;;10.24;100.00
71638;BME280;59485;43.542;-5.676;2022-12-11T19:58:28;100715.31;;;10.18;100.00
71638;BME280;59485;43.542;-5.676;2022-12-11T20:00:54;100728.22;;;10.24;100.00
71638;BME280;59485;43.542;-5.676;2022-12-11T20:03:20;100708.28;;;10.15;100.00
71638;BME280;59485;43.542;-5.676;2022-12-11T20:05:46;100723.34;;;10.19;100.00
71638;BME280;59485;43.542;-5.676;2022-12-11T20:08:12;100710.81;;;10.16;100.00
71638;BME280;59485;43.542;-5.676;2022-12-11T20:10:37;100703.81;;;10.14;100.00
71638;BME280;59485;43.542;-5.676;2022-12-11T20:13:03;100700.63;;;10.10;100.00
71638;BME280;59485;43.542;-5.676;2022-12-11T20:15:29;100706.03;;;10.19;100.00
71638;BME280;59485;43.542;-5.676;2022-12-11T20:17:56;100710.16;;;10.14;100.00
71638;BME280;59485;43.542;-5.676;2022-12-11T20:20:24;100729.66;;;10.20;100.00
71638;BME280;59485;43.542;-5.676;2022-12-11T20:22:51;100732.41;;;10.20;100.00
71638;BME280;59485;43.542;-5.676;2022-12-11T20:25:17;100730.47;;;10.20;100.00
71638;BME280;59485;43.542;-5.676;2022-12-11T20:27:42;100732.25;;;10.13;100.00
71638;BME280;59485;43.542;-5.676;2022-12-11T20:30:09;100729.69;;;10.11;100.00
71638;BME280;59485;43.542;-5.676;2022-12-11T20:32:34;100715.63;;;10.14;100.00
71638;BME280;59485;43.542;-5.676;2022-12-11T20:35:02;100707.34;;;10.08;100.00
71638;BME280;59485;43.542;-5.676;2022-12-11T20:37:28;100724.81;;;10.07;100.00
71638;BME280;59485;43.542;-5.676;2022-12-11T20:39:54;100727.06;;;10.03;100.00
71638;BME280;59485;43.542;-5.676;2022-12-11T20:42:20;100732.34;;;10.05;100.00
71638;BME280;59485;43.542;-5.676;2022-12-11T20:44:45;100718.38;;;10.00;100.00
71638;BME280;59485;43.542;-5.676;2022-12-11T20:47:11;100729.69;;;9.97;100.00
71638;BME280;59485;43.542;-5.676;2022-12-11T20:49:37;100736.53;;;10.01;100.00
71638;BME280;59485;43.542;-5.676;2022-12-11T20:52:12;100737.63;;;9.92;100.00
71638;BME280;59485;43.542;-5.676;2022-12-11T20:54:38;100739.97;;;9.95;100.00
71638;BME280;59485;43.542;-5.676;2022-12-11T20:57:04;100735.94;;;9.91;100.00
71638;BME280;59485;43.542;-5.676;2022-12-11T20:59:29;100735.75;;;9.92;100.00
71638;BME280;59485;43.542;-5.676;2022-12-11T21:01:55;100731.75;;;9.80;100.00
71638;BME280;59485;43.542;-5.676;2022-12-11T21:04:21;100750.75;;;9.82;100.00
71638;BME280;59485;43.542;-5.676;2022-12-11T21:06:48;100752.63;;;9.81;100.00
71638;BME280;59485;43.542;-5.676;2022-12-11T21:09:21;100757.63;;;9.77;100.00
71638;BME280;59485;43.542;-5.676;2022-12-11T21:11:47;100754.59;;;9.72;100.00
71638;BME280;59485;43.542;-5.676;2022-12-11T21:14:13;100770.84;;;9.74;100.00
71638;BME280;59485;43.542;-5.676;2022-12-11T21:16:42;100769.84;;;9.67;100.00
71638;BME280;59485;43.542;-5.676;2022-12-11T21:19:10;100775.31;;;9.67;100.00
71638;BME280;59485;43.542;-5.676;2022-12-11T21:21:36;100774.69;;;9.65;100.00